Time;durP1;ratioP1;P1;durP2;ratioP2;P2;SDS_P1;SDS_P2;PMS_P1;PMS_P2;Temp;Humidity;BMP_temperature;BMP_pressure;BME280_temperature;BME280_humidity;BME280_pressure;Samples;Min_cycle;Max_cycle;Signal;HPM_P1;HPM_P2
2022/11/07 00:00:48;;;;;;;48.88;24.10;;;11.10;99.90;;;;;;5075630;28;20055;-74
2022/11/07 00:03:15;;;;;;;42.25;19.67;;;11.10;99.90;;;;;;5095966;28;20051;-75
2022/11/07 00:05:41;;;;;;;46.40;22.80;;;11.10;99.90;;;;;;5092741;28;20145;-75
2022/11/07 00:08:09;;;;;;;43.05;20.65;;;11.00;99.90;;;;;;5106624;28;20077;-75
2022/11/07 00:10:35;;;;;;;49.03;23.27;;;11.00;99.90;;;;;;5100526;28;20073;-75
2022/11/07 00:13:01;;;;;;;44.80;20.20;;;10.90;99.90;;;;;;5096993;28;20420;-75
2022/11/07 00:15:30;;;;;;;45.58;20.85;;;11.00;99.90;;;;;;5109439;28;20053;-75
2022/11/07 00:17:57;;;;;;;46.22;21.77;;;11.00;99.90;;;;;;5099294;28;20034;-75
2022/11/07 00:21:18;;;;;;;56.42;26.27;;;11.10;99.90;;;;;;5098145;28;20028;-74
2022/11/07 00:23:44;;;;;;;50.70;25.73;;;11.10;99.90;;;;;;5092108;28;20024;-75
2022/11/07 00:26:19;;;;;;;42.17;23.63;;;11.10;99.90;;;;;;5091992;28;20024;-75
2022/11/07 00:29:13;;;;;;;48.70;24.00;;;11.10;99.90;;;;;;5100950;28;20298;-79
2022/11/07 00:32:36;;;;;;;50.75;24.35;;;11.00;99.90;;;;;;5068321;28;20469;-75
2022/11/07 00:35:05;;;;;;;52.97;23.83;;;11.00;99.90;;;;;;5059169;28;20493;-77
2022/11/07 00:42:15;;;;;;;48.53;21.88;;;10.90;99.90;;;;;;4925000;29;20183;-75
2022/11/07 00:44:43;;;;;;;37.92;21.23;;;11.00;99.90;;;;;;4905715;29;20047;-74
2022/11/07 00:47:53;;;;;;;58.03;25.00;;;11.00;99.90;;;;;;4931888;29;20209;-75
2022/11/07 00:54:15;;;;;;;38.25;19.95;;;11.00;99.90;;;;;;4848812;29;20412;-74
2022/11/07 00:57:23;;;;;;;;;;;;;;;;;;;;;
2022/11/07 01:00:29;;;;;;;39.03;21.38;;;11.20;99.90;;;;;;4850177;29;20456;-76
2022/11/07 01:06:17;;;;;;;56.95;24.60;;;11.20;99.90;;;;;;4847401;29;20054;-75
2022/11/07 01:08:48;;;;;;;39.72;21.15;;;11.30;99.90;;;;;;4868538;29;20121;-73
2022/11/07 01:11:32;;;;;;;44.17;21.73;;;11.30;99.90;;;;;;4848414;29;20141;-73
2022/11/07 01:14:24;;;;;;;39.40;22.67;;;11.30;99.90;;;;;;4863484;29;20128;-75
2022/11/07 01:17:10;;;;;;;;;;;;;;;;;;;;;
2022/11/07 01:19:54;;;;;;;40.40;21.45;;;11.40;99.90;;;;;;4982589;28;20045;-74
2022/11/07 01:22:33;;;;;;;36.53;20.13;;;11.40;99.90;;;;;;4958714;28;20038;-78
2022/11/07 01:24:59;;;;;;;40.72;19.92;;;11.50;99.90;;;;;;4989150;28;20040;-77
2022/11/07 01:27:25;;;;;;;39.75;20.10;;;11.50;99.90;;;;;;5011213;28;20038;-75
2022/11/07 01:29:51;;;;;;;41.05;19.77;;;11.50;99.90;;;;;;5031698;28;20032;-74
2022/11/07 01:32:17;;;;;;;69.07;27.17;;;11.50;99.90;;;;;;5084921;28;20046;-75
2022/11/07 01:34:46;;;;;;;35.92;19.00;;;11.50;99.90;;;;;;5083767;28;20024;-75
2022/11/07 01:37:12;;;;;;;36.55;20.40;;;11.50;99.90;;;;;;5080431;28;20538;-74
2022/11/07 01:39:38;;;;;;;42.67;20.38;;;11.50;99.90;;;;;;5082359;28;20490;-74
2022/11/07 01:42:39;;;;;;;;;;;;;;;;;;;;;
2022/11/07 01:45:20;;;;;;;35.75;18.25;;;11.60;99.90;;;;;;5095407;28;20048;-75
2022/11/07 01:47:51;;;;;;;39.20;20.50;;;11.60;99.90;;;;;;5104722;28;20043;-76
2022/11/07 01:50:18;;;;;;;40.92;20.65;;;11.60;99.90;;;;;;5106979;28;20026;-74
2022/11/07 01:52:48;;;;;;;36.60;20.42;;;11.70;99.90;;;;;;5104668;28;20039;-75
2022/11/07 01:55:22;;;;;;;41.95;20.52;;;11.70;99.90;;;;;;5110392;28;20016;-73
2022/11/07 01:57:58;;;;;;;42.63;20.60;;;11.70;99.90;;;;;;5115561;28;20015;-73
2022/11/07 02:00:27;;;;;;;37.55;20.85;;;11.70;99.90;;;;;;5106403;28;20024;-75
2022/11/07 02:03:21;;;;;;;43.38;21.75;;;11.70;99.90;;;;;;5102057;28;20469;-73
2022/11/07 02:06:36;;;;;;;35.58;19.17;;;11.70;99.90;;;;;;5034757;28;20029;-75
2022/11/07 02:09:23;;;;;;;39.22;20.25;;;11.70;99.90;;;;;;5054350;28;20152;-74
2022/11/07 02:12:39;;;;;;;;;;;;;;;;;;;;;
2022/11/07 02:15:14;;;;;;;44.03;21.88;;;11.60;99.90;;;;;;5047496;28;20483;-74
2022/11/07 02:17:41;;;;;;;43.50;21.58;;;11.60;99.90;;;;;;5044667;28;20099;-75
2022/11/07 02:20:20;;;;;;;45.13;21.92;;;11.40;99.90;;;;;;5040718;28;20025;-74
2022/11/07 02:23:39;;;;;;;39.67;21.02;;;11.40;99.90;;;;;;5060923;28;20060;-76
2022/11/07 02:26:07;;;;;;;45.22;21.45;;;11.40;99.90;;;;;;5054036;28;20070;-74
2022/11/07 02:28:37;;;;;;;45.08;21.90;;;11.40;99.90;;;;;;5043717;28;20479;-75
2022/11/07 02:31:04;;;;;;;41.78;21.88;;;11.30;99.90;;;;;;5036677;28;20037;-76
2022/11/07 02:33:31;;;;;;;38.75;20.35;;;11.30;99.90;;;;;;5023697;28;20060;-76
2022/11/07 02:36:01;;;;;;;39.58;20.33;;;11.30;99.90;;;;;;5045847;28;20044;-80
2022/11/07 02:38:34;;;;;;;45.42;20.98;;;11.40;99.90;;;;;;5028081;28;20036;-75
2022/11/07 02:41:12;;;;;;;34.70;18.98;;;11.40;99.90;;;;;;5044508;28;20024;-79
2022/11/07 02:44:05;;;;;;;39.75;21.15;;;11.40;99.90;;;;;;5103983;28;20236;-78
2022/11/07 02:46:32;;;;;;;39.95;21.38;;;11.50;99.90;;;;;;5102728;28;20028;-75
2022/11/07 02:49:00;;;;;;;44.67;21.23;;;11.50;99.90;;;;;;5121749;27;20477;-76
2022/11/07 02:51:28;;;;;;;42.45;21.95;;;11.50;99.90;;;;;;5117193;27;20551;-76
2022/11/07 02:53:57;;;;;;;43.35;22.58;;;11.50;99.90;;;;;;5112665;27;20099;-75
2022/11/07 02:56:23;;;;;;;41.45;22.15;;;11.50;99.90;;;;;;5112915;27;20084;-76
2022/11/07 02:58:51;;;;;;;40.78;22.30;;;11.50;99.90;;;;;;5120597;27;20465;-81
2022/11/07 03:01:17;;;;;;;36.67;21.05;;;11.60;99.90;;;;;;5125976;27;20026;-77
2022/11/07 03:03:46;;;;;;;44.30;23.17;;;11.50;99.90;;;;;;5122119;27;20024;-77
2022/11/07 03:06:16;;;;;;;38.80;20.20;;;11.50;99.90;;;;;;5128214;27;20050;-76
2022/11/07 03:08:42;;;;;;;44.42;24.08;;;11.50;99.90;;;;;;5115686;27;20050;-78
2022/11/07 03:11:09;;;;;;;49.05;23.70;;;11.50;99.90;;;;;;5112071;28;20024;-77
2022/11/07 03:13:35;;;;;;;41.83;22.85;;;11.50;99.90;;;;;;5112621;28;20034;-74
2022/11/07 03:16:05;;;;;;;49.85;24.10;;;11.60;99.90;;;;;;5112167;28;20082;-79
2022/11/07 03:18:31;;;;;;;42.78;23.13;;;11.60;99.90;;;;;;5112366;28;20016;-74
2022/11/07 03:21:03;;;;;;;41.47;20.63;;;11.60;99.90;;;;;;5112660;27;20019;-81
2022/11/07 03:23:29;;;;;;;40.42;21.58;;;11.70;99.90;;;;;;5112412;28;20495;-77
2022/11/07 03:25:55;;;;;;;37.53;22.60;;;11.70;99.90;;;;;;5112059;28;20026;-75
2022/11/07 03:28:24;;;;;;;43.10;21.42;;;11.70;99.90;;;;;;5125563;27;20066;-76
2022/11/07 03:30:55;;;;;;;40.40;20.38;;;11.70;99.90;;;;;;5093734;28;20102;-76
2022/11/07 03:33:25;;;;;;;42.08;20.33;;;11.70;99.90;;;;;;5112129;28;20107;-76
2022/11/07 03:35:54;;;;;;;38.25;20.98;;;11.70;99.90;;;;;;5114050;27;20023;-75
2022/11/07 03:38:26;;;;;;;42.85;21.88;;;11.70;99.90;;;;;;5113262;27;20556;-78
2022/11/07 03:40:52;;;;;;;40.97;23.45;;;11.70;99.90;;;;;;5111779;28;20027;-77
2022/11/07 03:43:19;;;;;;;37.75;20.65;;;11.70;99.90;;;;;;5122200;27;20054;-76
2022/11/07 03:45:47;;;;;;;38.65;21.95;;;11.70;99.90;;;;;;5106504;28;20114;-79
2022/11/07 03:48:15;;;;;;;40.85;22.10;;;11.70;99.90;;;;;;5122051;28;20067;-76
2022/11/07 03:50:42;;;;;;;44.92;24.40;;;11.80;99.90;;;;;;5070290;28;20055;-76
2022/11/07 03:53:09;;;;;;;51.20;24.75;;;11.80;99.90;;;;;;5104105;27;20027;-78
2022/11/07 03:55:35;;;;;;;53.97;24.55;;;11.80;99.90;;;;;;5107456;28;20075;-78
2022/11/07 03:58:02;;;;;;;51.80;25.35;;;11.70;99.90;;;;;;5121640;28;20069;-76
2022/11/07 04:00:30;;;;;;;47.75;24.05;;;11.80;99.90;;;;;;5103958;28;20847;-80
2022/11/07 04:03:03;;;;;;;48.97;25.58;;;11.80;99.90;;;;;;5122944;27;20083;-80
2022/11/07 04:05:29;;;;;;;55.83;27.65;;;11.80;99.90;;;;;;5119845;28;20107;-79
2022/11/07 04:07:57;;;;;;;49.38;26.77;;;11.80;99.90;;;;;;5130734;27;20043;-79
2022/11/07 04:10:25;;;;;;;54.30;27.30;;;11.80;99.90;;;;;;5128263;27;20575;-82
2022/11/07 04:18:25;;;;;;;37.40;21.50;;;11.80;99.90;;;;;;5118211;28;20055;-73
2022/11/07 04:20:53;;;;;;;36.50;19.92;;;11.80;99.90;;;;;;5105572;27;20436;-75
2022/11/07 04:23:23;;;;;;;42.83;19.38;;;11.80;99.90;;;;;;5123420;27;20027;-75
2022/11/07 04:28:36;;;;;;;38.42;20.15;;;11.80;99.90;;;;;;5102142;28;20034;-74
2022/11/07 04:31:03;;;;;;;37.50;18.67;;;11.70;99.90;;;;;;5102106;28;20143;-73
2022/11/07 04:33:32;;;;;;;34.30;18.13;;;11.80;99.90;;;;;;5086505;28;20027;-74
2022/11/07 04:36:00;;;;;;;33.08;18.02;;;11.80;99.90;;;;;;5121352;28;20034;-78
2022/11/07 04:38:27;;;;;;;29.27;18.27;;;11.80;99.90;;;;;;5128950;27;20031;-76
2022/11/07 04:40:58;;;;;;;30.17;18.63;;;11.80;99.90;;;;;;5106951;28;20027;-74
2022/11/07 04:43:26;;;;;;;34.35;18.80;;;11.80;99.90;;;;;;5121802;28;20020;-79
2022/11/07 04:45:53;;;;;;;40.45;20.70;;;11.80;99.90;;;;;;5126632;28;20020;-77
2022/11/07 04:48:45;;;;;;;33.33;18.80;;;11.90;99.90;;;;;;5102243;28;20075;-73
2022/11/07 04:51:23;;;;;;;38.33;21.73;;;11.80;99.90;;;;;;5093951;28;20113;-73
2022/11/07 04:53:51;;;;;;;32.95;19.38;;;11.80;99.90;;;;;;5110794;28;20028;-75
2022/11/07 04:56:17;;;;;;;32.53;17.35;;;11.80;99.90;;;;;;5109757;28;20211;-73
2022/11/07 05:02:09;;;;;;;31.60;16.98;;;11.80;99.90;;;;;;5104950;23;20146;-75
2022/11/07 05:04:37;;;;;;;34.35;19.15;;;11.90;99.90;;;;;;4949114;28;20382;-76
2022/11/07 05:07:04;;;;;;;36.60;20.70;;;11.90;99.90;;;;;;4945522;29;20090;-74
2022/11/07 05:09:31;;;;;;;40.33;21.10;;;11.90;99.90;;;;;;4952266;29;20016;-78
2022/11/07 05:12:00;;;;;;;44.58;22.25;;;11.80;99.90;;;;;;4950295;28;20030;-73
2022/11/07 05:14:26;;;;;;;40.67;23.33;;;11.60;99.90;;;;;;4942756;29;20051;-74
2022/11/07 05:16:54;;;;;;;34.17;20.17;;;11.70;99.90;;;;;;4948418;29;20028;-78
2022/11/07 05:19:20;;;;;;;41.47;21.73;;;11.70;99.90;;;;;;4932047;29;20050;-76
2022/11/07 05:23:10;;;;;;;33.35;19.70;;;11.60;99.90;;;;;;4938561;29;20228;-78
2022/11/07 05:24:42;;;;;;;37.38;20.95;;;11.70;99.90;;;;;;4958468;29;20016;-76
2022/11/07 05:27:29;;;;;;;35.72;19.40;;;11.70;99.90;;;;;;4941975;29;20036;-76
2022/11/07 05:30:19;;;;;;;37.42;22.05;;;11.70;99.90;;;;;;4975291;23;20469;-75
2022/11/07 05:33:29;;;;;;;45.00;25.63;;;11.70;99.90;;;;;;4952252;28;20086;-79
2022/11/07 05:36:18;;;;;;;38.17;21.95;;;11.60;99.90;;;;;;4963174;28;20042;-78
2022/11/07 05:38:48;;;;;;;37.78;22.08;;;11.60;99.90;;;;;;4977314;28;20035;-75
2022/11/07 05:41:26;;;;;;;35.15;22.15;;;11.60;99.90;;;;;;4972168;28;20019;-78
2022/11/07 05:43:53;;;;;;;35.60;20.52;;;11.70;99.90;;;;;;4967094;28;20042;-79
2022/11/07 05:46:20;;;;;;;36.08;21.25;;;11.70;99.90;;;;;;4987584;28;20031;-75
2022/11/07 05:48:51;;;;;;;38.58;21.38;;;11.70;99.90;;;;;;4969208;28;20058;-83
2022/11/07 05:51:20;;;;;;;44.42;22.75;;;11.70;99.90;;;;;;4973026;28;20019;-82
2022/11/07 05:53:47;;;;;;;43.38;24.67;;;11.80;99.90;;;;;;4970705;28;20027;-83
2022/11/07 05:56:17;;;;;;;52.15;29.48;;;11.80;99.90;;;;;;4985529;28;20035;-79
2022/11/07 05:58:45;;;;;;;40.92;25.33;;;11.80;99.90;;;;;;4974874;28;20027;-79
2022/11/07 06:01:14;;;;;;;37.55;20.10;;;11.80;99.90;;;;;;4980727;28;20027;-82
2022/11/07 06:03:45;;;;;;;33.03;20.15;;;11.80;99.90;;;;;;4999131;28;20019;-76
2022/11/07 06:06:13;;;;;;;40.10;22.50;;;11.80;99.90;;;;;;4984525;28;20091;-79
2022/11/07 06:08:41;;;;;;;35.35;21.75;;;11.70;99.90;;;;;;4988527;28;20026;-78
2022/11/07 06:11:08;;;;;;;41.38;21.80;;;11.70;99.90;;;;;;4982459;28;20031;-82
2022/11/07 06:13:35;;;;;;;34.25;21.10;;;11.70;99.90;;;;;;4975780;28;20373;-80
2022/11/07 06:16:04;;;;;;;38.25;21.33;;;11.80;99.90;;;;;;4993583;28;20519;-81
2022/11/07 06:18:31;;;;;;;37.13;20.02;;;11.80;99.90;;;;;;4994358;28;20023;-79
2022/11/07 06:21:06;;;;;;;37.30;20.92;;;11.80;99.90;;;;;;4989966;28;20037;-76
2022/11/07 06:23:39;;;;;;;36.95;21.50;;;11.80;99.90;;;;;;4976678;28;20031;-80
2022/11/07 06:26:06;;;;;;;40.17;21.58;;;11.80;99.90;;;;;;4982675;28;20031;-75
2022/11/07 06:28:41;;;;;;;37.97;21.13;;;11.70;99.90;;;;;;4976536;28;20027;-76
2022/11/07 06:31:07;;;;;;;34.88;20.50;;;11.50;99.90;;;;;;4977757;28;20097;-77
2022/11/07 06:33:33;;;;;;;41.05;22.08;;;11.60;99.90;;;;;;4981967;28;20077;-75
2022/11/07 06:36:08;;;;;;;39.17;20.95;;;11.60;99.90;;;;;;4998521;28;20037;-76
2022/11/07 06:38:37;;;;;;;41.15;21.48;;;11.70;99.90;;;;;;4997755;28;20030;-77
2022/11/07 06:41:09;;;;;;;34.67;21.60;;;11.80;99.90;;;;;;4996720;28;20028;-76
2022/11/07 06:43:38;;;;;;;39.88;22.27;;;11.80;99.90;;;;;;4996225;28;20120;-75
2022/11/07 06:46:32;;;;;;;41.75;23.10;;;11.90;99.90;;;;;;4995995;28;20081;-76
2022/11/07 06:49:02;;;;;;;53.63;22.98;;;11.90;99.90;;;;;;4995650;28;20041;-76
2022/11/07 06:52:18;;;;;;;46.25;24.58;;;11.80;99.90;;;;;;4994114;28;20027;-76
2022/11/07 06:55:28;;;;;;;48.08;28.25;;;11.70;99.90;;;;;;4920136;29;20079;-76
2022/11/07 06:58:04;;;;;;;41.85;24.23;;;11.70;99.90;;;;;;4917313;29;20050;-76
2022/11/07 07:04:46;;;;;;;37.30;19.90;;;11.80;99.90;;;;;;4875477;29;20041;-76
2022/11/07 07:07:52;;;;;;;38.13;19.58;;;11.60;99.90;;;;;;4867302;29;20067;-76
2022/11/07 07:10:32;;;;;;;;;;;;;;;;;;;;;
2022/11/07 07:13:45;;;;;;;36.97;19.73;;;11.70;99.90;;;;;;4832031;29;20082;-77
2022/11/07 07:16:11;;;;;;;32.28;17.85;;;11.70;99.90;;;;;;4846263;29;20062;-76
2022/11/07 07:18:38;;;;;;;34.55;18.08;;;11.80;99.90;;;;;;4837883;29;20026;-76
2022/11/07 07:21:12;;;;;;;39.83;21.17;;;11.80;99.90;;;;;;4838891;29;20092;-76
2022/11/07 07:24:03;;;;;;;40.60;21.17;;;11.70;99.90;;;;;;4814114;29;20121;-76
2022/11/07 07:30:19;;;;;;;44.33;21.00;;;11.70;99.90;;;;;;4861877;29;20048;-76
2022/11/07 07:33:18;;;;;;;37.20;18.90;;;11.60;99.90;;;;;;4912957;29;20595;-75
2022/11/07 07:35:47;;;;;;;31.77;19.33;;;11.80;99.90;;;;;;4915211;29;20048;-76
2022/11/07 07:38:22;;;;;;;29.13;18.08;;;11.80;99.90;;;;;;4914914;29;20493;-75
2022/11/07 07:40:48;;;;;;;38.30;19.25;;;11.60;99.90;;;;;;4914541;29;20506;-79
2022/11/07 07:43:14;;;;;;;33.03;16.45;;;11.60;99.90;;;;;;4916443;29;20168;-76
2022/11/07 07:46:07;;;;;;;32.47;15.73;;;11.70;99.90;;;;;;4915294;29;20046;-76
2022/11/07 07:48:35;;;;;;;30.63;15.25;;;11.90;99.90;;;;;;4978355;28;20530;-76
2022/11/07 07:51:12;;;;;;;28.20;14.38;;;12.00;99.90;;;;;;4977848;28;20355;-76
2022/11/07 07:54:28;;;;;;;27.05;15.05;;;12.00;99.90;;;;;;4980163;28;20476;-76
2022/11/07 08:01:24;;;;;;;34.72;16.35;;;12.20;99.90;;;;;;4879714;29;20080;-76
2022/11/07 08:03:50;;;;;;;28.80;16.17;;;12.30;99.90;;;;;;4879235;29;20037;-76
2022/11/07 08:06:20;;;;;;;28.20;15.85;;;12.30;99.90;;;;;;4879117;29;20033;-76
2022/11/07 08:08:47;;;;;;;27.25;15.35;;;12.40;99.90;;;;;;4879210;29;20052;-76
2022/11/07 08:16:06;;;;;;;28.80;16.00;;;12.60;99.90;;;;;;4740836;30;20458;-76
2022/11/07 08:20:09;;;;;;;24.15;12.35;;;12.50;99.90;;;;;;4750742;30;20059;-76
2022/11/07 08:23:21;;;;;;;22.25;10.65;;;12.60;99.90;;;;;;4664381;30;20100;-77
2022/11/07 08:26:19;;;;;;;19.80;11.35;;;12.70;99.90;;;;;;4667007;30;20046;-78
2022/11/07 08:33:42;;;;;;;20.70;13.30;;;12.70;99.90;;;;;;4701644;30;20041;-77
2022/11/07 08:36:10;;;;;;;30.85;17.88;;;12.70;99.90;;;;;;4715765;30;20057;-76
2022/11/07 08:43:14;;;;;;;38.80;20.02;;;12.80;99.90;;;;;;4723879;30;20079;-83
2022/11/07 08:46:04;;;;;;;35.47;22.05;;;12.70;99.90;;;;;;4739409;30;20419;-76
2022/11/07 08:48:30;;;;;;;47.45;24.83;;;12.70;99.90;;;;;;4737605;30;20076;-76
2022/11/07 08:51:47;;;;;;;46.05;26.23;;;12.70;99.90;;;;;;4828053;29;20057;-76
2022/11/07 08:55:38;;;;;;;45.03;28.33;;;12.60;99.90;;;;;;4858857;29;20045;-76
2022/11/07 08:58:14;;;;;;;43.33;25.63;;;12.60;99.90;;;;;;4793352;29;20036;-77
2022/11/07 09:00:41;;;;;;;36.40;20.63;;;12.60;99.90;;;;;;4750993;30;20220;-77
2022/11/07 09:03:20;;;;;;;34.67;18.98;;;12.50;99.90;;;;;;4759735;30;20078;-78
2022/11/07 09:06:41;;;;;;;40.33;19.92;;;12.50;99.90;;;;;;4765785;30;20139;-76
2022/11/07 09:10:17;;;;;;;37.78;20.35;;;12.40;99.90;;;;;;4734693;30;20051;-76
2022/11/07 09:12:49;;;;;;;34.72;20.45;;;12.50;99.90;;;;;;4754725;30;20048;-76
2022/11/07 09:16:16;;;;;;;;;;;;;;;;;;;;;
2022/11/07 09:23:52;;;;;;;40.95;21.05;;;12.40;99.90;;;;;;4715063;30;20044;-76
2022/11/07 09:26:24;;;;;;;32.55;21.13;;;12.40;99.90;;;;;;4709811;30;20055;-76
2022/11/07 09:28:54;;;;;;;36.55;22.02;;;12.30;99.90;;;;;;4715754;30;20057;-76
2022/11/07 09:31:24;;;;;;;38.28;23.23;;;12.30;99.90;;;;;;4737004;30;20031;-77
2022/11/07 09:33:50;;;;;;;34.47;21.83;;;12.30;99.90;;;;;;4782318;29;20050;-77
2022/11/07 09:36:16;;;;;;;39.25;21.70;;;12.30;99.90;;;;;;4804684;29;20067;-77
2022/11/07 09:38:43;;;;;;;34.25;20.38;;;12.30;99.90;;;;;;4804571;29;20097;-76
2022/11/07 09:41:42;;;;;;;35.15;20.45;;;12.40;99.90;;;;;;4804916;29;20071;-77
2022/11/07 09:48:04;;;;;;;35.08;20.48;;;12.50;99.90;;;;;;4817056;29;20448;-76
2022/11/07 09:54:54;;;;;;;33.85;20.15;;;12.40;99.90;;;;;;4845950;29;19937;-76
2022/11/07 10:06:20;;;;;;;37.10;23.77;;;12.30;99.90;;;;;;4825342;29;20057;-76
2022/11/07 10:09:46;;;;;;;29.80;18.15;;;12.40;99.90;;;;;;4800019;29;20747;-79
2022/11/07 10:23:29;;;;;;;30.67;18.85;;;12.30;99.90;;;;;;4771350;29;20040;-79
2022/11/07 10:30:26;;;;;;;37.92;22.15;;;12.50;99.90;;;;;;4805664;29;20678;-77
2022/11/07 10:33:15;;;;;;;32.58;20.30;;;12.50;99.90;;;;;;4776346;29;20035;-76
2022/11/07 10:35:59;;;;;;;39.97;24.08;;;12.60;99.90;;;;;;4796260;29;20051;-77
2022/11/07 10:42:47;;;;;;;34.72;19.13;;;12.60;99.90;;;;;;4751911;30;20634;-78
2022/11/07 10:49:22;;;;;;;27.33;17.38;;;12.50;99.90;;;;;;4786370;29;20499;-76
2022/11/07 11:03:12;;;;;;;25.00;12.23;;;12.70;99.90;;;;;;5118439;23;20070;-76
2022/11/07 11:06:25;;;;;;;31.13;15.13;;;12.70;99.90;;;;;;4973787;28;20037;-76
2022/11/07 11:09:16;;;;;;;27.33;16.63;;;12.80;99.90;;;;;;4972312;28;20064;-77
2022/11/07 11:12:23;;;;;;;32.40;17.70;;;12.90;99.90;;;;;;4980210;28;20126;-77
2022/11/07 11:15:05;;;;;;;28.77;17.92;;;12.80;99.90;;;;;;5000913;28;20045;-76
2022/11/07 11:18:15;;;;;;;25.30;16.30;;;12.70;99.90;;;;;;4977140;28;20085;-76
2022/11/07 11:25:53;;;;;;;25.50;17.42;;;12.80;99.90;;;;;;4899416;29;20130;-77
2022/11/07 11:32:37;;;;;;;33.28;19.35;;;12.60;99.90;;;;;;4904796;29;20055;-78
2022/11/07 11:39:16;;;;;;;30.90;18.88;;;12.60;99.90;;;;;;4835638;29;20046;-76
2022/11/07 11:45:52;;;;;;;34.22;17.92;;;12.70;99.90;;;;;;4818183;29;20058;-77
2022/11/07 11:53:06;;;;;;;26.57;14.57;;;12.70;99.90;;;;;;4793205;29;20053;-78
2022/11/07 11:56:23;;;;;;;29.95;18.55;;;12.70;99.90;;;;;;4804516;29;20261;-76
2022/11/07 11:58:53;;;;;;;28.63;17.35;;;12.80;99.90;;;;;;4811437;29;20070;-76
2022/11/07 12:02:03;;;;;;;26.40;15.63;;;12.80;99.90;;;;;;4810601;29;20113;-78
2022/11/07 12:05:53;;;;;;;;;;;;;;;;;;;;;
2022/11/07 12:12:44;;;;;;;33.58;19.27;;;12.50;99.90;;;;;;4744124;30;20105;-76
2022/11/07 12:19:31;;;;;;;30.08;18.42;;;12.50;99.90;;;;;;4799936;29;20067;-77
2022/11/07 12:22:17;;;;;;;35.00;20.23;;;12.50;99.90;;;;;;4808846;29;20731;-75
2022/11/07 12:25:42;;;;;;;39.63;24.35;;;12.60;99.90;;;;;;4805246;29;20039;-79
2022/11/07 12:28:29;;;;;;;36.40;20.60;;;12.50;99.90;;;;;;4736355;30;20056;-77
2022/11/07 12:31:14;;;;;;;31.90;18.92;;;12.50;99.90;;;;;;4731353;30;20106;-76
2022/11/07 12:34:08;;;;;;;32.20;18.67;;;12.50;99.90;;;;;;4731515;30;20570;-77
2022/11/07 12:36:53;;;;;;;36.53;20.80;;;12.50;99.90;;;;;;4732280;30;20059;-76
2022/11/07 12:39:36;;;;;;;37.28;21.10;;;12.50;99.90;;;;;;4765333;30;20059;-77
2022/11/07 12:45:18;;;;;;;33.47;20.85;;;12.60;99.90;;;;;;4773809;26;20051;-81
2022/11/07 12:48:06;;;;;;;32.63;19.33;;;12.60;99.90;;;;;;4972054;28;20073;-76
2022/11/07 12:51:14;;;;;;;;;;;;;;;;;;;;;
2022/11/07 12:54:26;;;;;;;31.75;18.63;;;12.60;99.90;;;;;;4945356;29;20106;-76
2022/11/07 13:00:59;;;;;;;35.15;22.60;;;12.50;99.90;;;;;;4819844;29;20052;-74
2022/11/07 13:03:55;;;;;;;38.95;23.92;;;12.40;99.90;;;;;;4845647;29;20059;-76
2022/11/07 13:06:41;;;;;;;35.00;22.00;;;12.40;99.90;;;;;;4850316;29;20057;-80
2022/11/07 13:10:09;;;;;;;34.90;19.60;;;12.40;99.90;;;;;;4829929;29;20182;-80
2022/11/07 13:14:02;;;;;;;;;;;;;;;;;;;;;
2022/11/07 13:28:51;;;;;;;;;;;;;;;;;;;;;
2022/11/07 13:51:58;;;;;;;132.45;94.40;;;12.10;99.90;;;;;;4938885;29;20585;-84
2022/11/07 13:54:40;;;;;;;104.25;77.38;;;12.20;99.90;;;;;;4880250;29;20503;-76
2022/11/07 13:57:15;;;;;;;63.08;42.50;;;12.20;99.90;;;;;;4895416;29;20368;-83
2022/11/07 13:59:47;;;;;;;57.10;37.83;;;12.20;99.90;;;;;;4895626;28;20036;-75
2022/11/07 14:02:25;;;;;;;39.63;22.83;;;12.10;99.90;;;;;;4896435;29;20492;-76
2022/11/07 14:05:00;;;;;;;43.65;20.75;;;12.10;99.90;;;;;;4879235;29;20351;-75
2022/11/07 14:07:33;;;;;;;39.45;22.27;;;12.00;99.90;;;;;;4915883;29;20551;-78
2022/11/07 14:10:00;;;;;;;43.72;25.92;;;12.00;99.90;;;;;;4914206;29;20047;-79
2022/11/07 14:12:27;;;;;;;47.33;25.17;;;12.00;99.90;;;;;;4879994;29;20033;-80
2022/11/07 14:14:56;;;;;;;35.75;20.65;;;12.00;99.90;;;;;;4913719;29;20044;-83
2022/11/07 14:17:33;;;;;;;36.63;20.58;;;12.00;99.90;;;;;;4914383;29;20479;-76
2022/11/07 14:20:14;;;;;;;33.63;22.20;;;12.00;99.90;;;;;;4913677;29;20537;-75
2022/11/07 14:22:50;;;;;;;37.30;21.25;;;12.00;99.90;;;;;;4914444;29;20482;-75
2022/11/07 14:25:24;;;;;;;34.17;19.42;;;12.00;99.90;;;;;;4913127;29;20043;-77
2022/11/07 14:27:50;;;;;;;35.55;20.38;;;12.10;99.90;;;;;;4937311;29;20056;-75
2022/11/07 14:30:20;;;;;;;33.38;21.42;;;12.10;99.90;;;;;;4946634;29;20040;-76
2022/11/07 14:32:58;;;;;;;37.45;20.08;;;12.20;99.90;;;;;;4936330;29;20039;-75
2022/11/07 14:35:28;;;;;;;41.13;20.40;;;12.20;99.90;;;;;;4918164;29;20803;-75
2022/11/07 14:37:56;;;;;;;29.80;19.00;;;12.10;99.90;;;;;;4936302;29;20031;-74
2022/11/07 14:40:23;;;;;;;34.95;19.98;;;12.10;99.90;;;;;;4934978;29;20111;-74
2022/11/07 14:42:50;;;;;;;38.08;21.55;;;12.20;99.90;;;;;;4936368;29;20062;-76
2022/11/07 14:45:19;;;;;;;31.88;19.45;;;12.10;99.90;;;;;;4934915;29;20036;-76
2022/11/07 14:47:47;;;;;;;35.60;20.08;;;12.10;99.90;;;;;;4936397;29;20091;-76
2022/11/07 14:50:21;;;;;;;28.17;17.88;;;12.10;99.90;;;;;;4935278;29;20039;-75
2022/11/07 14:53:15;;;;;;;35.53;21.83;;;12.10;99.90;;;;;;4936138;29;20566;-75
2022/11/07 14:55:55;;;;;;;31.05;19.98;;;12.10;99.90;;;;;;4945380;29;20163;-77
2022/11/07 14:58:26;;;;;;;34.70;21.58;;;12.10;99.90;;;;;;4936000;29;20035;-76
2022/11/07 15:00:55;;;;;;;29.50;19.02;;;12.20;99.90;;;;;;4935909;29;20062;-76
2022/11/07 15:03:28;;;;;;;31.55;18.75;;;12.20;99.90;;;;;;4932272;29;20118;-76
2022/11/07 15:05:54;;;;;;;35.53;23.52;;;12.20;99.90;;;;;;4934062;29;20099;-74
2022/11/07 15:08:27;;;;;;;30.17;19.15;;;12.20;99.90;;;;;;4935640;29;20088;-75
2022/11/07 15:11:03;;;;;;;32.20;18.60;;;12.10;99.90;;;;;;4934215;29;20040;-77
2022/11/07 15:13:33;;;;;;;31.27;17.70;;;12.10;99.90;;;;;;4934746;29;20035;-75
2022/11/07 15:16:20;;;;;;;30.20;19.33;;;12.00;99.90;;;;;;4935700;29;20032;-75
2022/11/07 15:18:55;;;;;;;35.13;22.10;;;12.00;99.90;;;;;;4930691;29;20063;-75
2022/11/07 15:21:52;;;;;;;30.98;19.50;;;12.00;99.90;;;;;;4933743;29;20040;-74
2022/11/07 15:24:24;;;;;;;30.98;21.73;;;12.00;99.90;;;;;;4935225;29;20385;-74
2022/11/07 15:27:26;;;;;;;39.58;27.58;;;11.90;99.90;;;;;;4933147;29;20516;-77
2022/11/07 15:29:55;;;;;;;52.95;37.70;;;11.90;99.90;;;;;;4895701;29;20075;-73
2022/11/07 15:32:24;;;;;;;54.00;41.50;;;11.90;99.90;;;;;;4893567;29;20037;-76
2022/11/07 15:34:53;;;;;;;56.10;41.00;;;11.90;99.90;;;;;;4880304;29;20495;-74
2022/11/07 15:37:21;;;;;;;52.22;40.20;;;11.90;99.90;;;;;;4902942;29;20499;-74
2022/11/07 15:39:47;;;;;;;44.38;35.67;;;11.90;99.90;;;;;;4899186;29;20033;-76
2022/11/07 15:42:14;;;;;;;39.65;29.65;;;11.90;99.90;;;;;;4896375;29;20044;-77
2022/11/07 15:44:40;;;;;;;40.38;27.95;;;11.90;99.90;;;;;;4878308;29;20476;-75
2022/11/07 15:47:07;;;;;;;39.78;27.80;;;11.90;99.90;;;;;;4877572;29;20109;-76
2022/11/07 15:49:54;;;;;;;29.33;21.48;;;12.00;99.90;;;;;;4857051;29;20539;-74
2022/11/07 15:52:20;;;;;;;31.63;21.08;;;12.00;99.90;;;;;;4858050;29;20102;-74
2022/11/07 15:54:53;;;;;;;29.25;18.73;;;12.00;99.90;;;;;;4857184;29;20041;-74
2022/11/07 15:57:20;;;;;;;30.95;19.33;;;11.90;99.90;;;;;;4838817;29;20086;-75
2022/11/07 15:59:46;;;;;;;31.27;20.60;;;11.90;99.90;;;;;;4856711;29;20038;-74
2022/11/07 16:02:15;;;;;;;32.20;23.58;;;11.90;99.90;;;;;;4858058;29;20060;-74
2022/11/07 16:04:50;;;;;;;33.25;23.75;;;11.90;99.90;;;;;;4845092;29;20555;-74
2022/11/07 16:07:19;;;;;;;31.33;22.30;;;11.90;99.90;;;;;;4862673;29;20059;-74
2022/11/07 16:09:47;;;;;;;33.45;21.95;;;11.90;99.90;;;;;;4890215;29;20479;-74
2022/11/07 16:12:16;;;;;;;30.35;20.52;;;11.90;99.90;;;;;;4894855;29;20131;-73
2022/11/07 16:14:42;;;;;;;33.75;23.35;;;11.90;99.90;;;;;;4894563;29;20100;-74
2022/11/07 16:17:15;;;;;;;36.63;24.80;;;11.90;99.90;;;;;;4894729;29;20036;-76
2022/11/07 16:19:41;;;;;;;41.42;28.35;;;11.90;99.90;;;;;;4894037;29;20045;-74
2022/11/07 16:22:12;;;;;;;39.78;28.63;;;11.90;99.90;;;;;;4894229;29;20048;-72
2022/11/07 16:24:38;;;;;;;41.90;26.95;;;11.90;99.90;;;;;;4894262;29;20037;-73
2022/11/07 16:27:04;;;;;;;43.25;27.20;;;11.90;99.90;;;;;;4915790;29;20052;-75
2022/11/07 16:29:30;;;;;;;38.92;25.33;;;11.90;99.90;;;;;;4947755;29;20032;-77